Time;durP1;ratioP1;P1;durP2;ratioP2;P2;SDS_P1;SDS_P2;PMS_P1;PMS_P2;Temp;Humidity;BMP_temperature;BMP_pressure;BME280_temperature;BME280_humidity;BME280_pressure;Samples;Min_cycle;Max_cycle;Signal;HPM_P1;HPM_P2
2023/01/09 00:02:13;;;;;;;;;;;6.50;99.90;;;;;;5078414;28;19932;-81
2023/01/09 00:04:38;;;;;;;;;;;6.50;99.90;;;;;;5085735;28;19931;-81
2023/01/09 00:07:04;;;;;;;;;;;6.50;99.90;;;;;;5061440;28;19920;-81
2023/01/09 00:09:29;;;;;;;;;;;6.60;99.90;;;;;;5057000;28;20011;-81
2023/01/09 00:11:55;;;;;;;;;;;6.60;99.90;;;;;;5088081;28;19925;-81
2023/01/09 00:14:21;;;;;;;;;;;6.70;99.90;;;;;;5064158;28;20285;-81
2023/01/09 00:16:47;;;;;;;;;;;6.80;99.90;;;;;;5060621;28;19931;-81
2023/01/09 00:19:13;;;;;;;;;;;6.90;99.90;;;;;;5055747;28;19925;-80
2023/01/09 00:21:38;;;;;;;;;;;7.50;99.90;;;;;;5060537;28;20527;-81
2023/01/09 00:24:04;;;;;;;;;;;7.10;99.90;;;;;;5056283;28;20015;-81
2023/01/09 00:26:30;;;;;;;;;;;7.20;99.90;;;;;;5062141;28;19921;-81
2023/01/09 00:28:56;;;;;;;;;;;7.20;99.90;;;;;;5059058;28;20070;-81
2023/01/09 00:31:21;;;;;;;;;;;7.30;99.90;;;;;;5056086;28;19929;-81
2023/01/09 00:34:01;;;;;;;;;;;7.40;99.90;;;;;;5085029;28;19928;-81
2023/01/09 00:36:26;;;;;;;;;;;7.40;99.90;;;;;;5059731;28;19929;-81
2023/01/09 00:38:52;;;;;;;;;;;7.40;99.90;;;;;;5055056;28;19966;-81
2023/01/09 00:41:29;;;;;;;;;;;7.40;99.90;;;;;;5056665;28;19928;-81
2023/01/09 00:43:57;;;;;;;;;;;7.40;99.90;;;;;;5092166;28;20054;-81
2023/01/09 00:46:25;;;;;;;;;;;7.30;99.90;;;;;;5053262;28;19927;-81
2023/01/09 00:48:51;;;;;;;;;;;7.10;99.90;;;;;;5060819;28;19924;-81
2023/01/09 00:51:17;;;;;;;;;;;7.00;99.90;;;;;;5059676;28;20379;-81
2023/01/09 00:53:43;;;;;;;;;;;7.00;99.90;;;;;;5060623;28;19978;-81
2023/01/09 00:56:13;;;;;;;;;;;6.90;99.90;;;;;;5071770;28;19921;-81
2023/01/09 00:58:39;;;;;;;;;;;6.80;99.90;;;;;;5057782;28;19921;-81
2023/01/09 01:01:05;;;;;;;;;;;6.70;99.90;;;;;;5060075;28;19927;-81
2023/01/09 01:03:30;;;;;;;;;;;6.70;99.90;;;;;;5055907;28;19947;-81
2023/01/09 01:08:40;;;;;;;;;;;6.60;99.90;;;;;;5063024;28;19920;-81
2023/01/09 01:11:11;;;;;;;;;;;6.50;99.90;;;;;;5057268;28;19948;-81
2023/01/09 01:13:36;;;;;;;;;;;6.50;99.90;;;;;;5095914;28;19935;-81
2023/01/09 01:16:03;;;;;;;;;;;6.50;99.90;;;;;;5058708;28;20283;-81
2023/01/09 01:18:29;;;;;;;;;;;6.50;99.90;;;;;;5063757;28;20073;-81
2023/01/09 01:20:54;;;;;;;;;;;6.50;99.90;;;;;;5063031;28;19925;-81
2023/01/09 01:23:20;;;;;;;;;;;6.50;99.90;;;;;;5063836;28;19947;-81
2023/01/09 01:25:45;;;;;;;;;;;6.40;99.90;;;;;;5054793;28;20265;-81
2023/01/09 01:28:11;;;;;;;;;;;6.50;99.90;;;;;;5054475;28;19921;-81
2023/01/09 01:30:38;;;;;;;;;;;6.50;99.90;;;;;;5056384;28;20410;-80
2023/01/09 01:33:03;;;;;;;;;;;6.50;99.90;;;;;;5059837;28;19972;-81
2023/01/09 01:35:29;;;;;;;;;;;6.50;99.90;;;;;;5054134;28;19956;-81
2023/01/09 01:37:54;;;;;;;;;;;6.50;99.90;;;;;;5095765;28;19928;-81
2023/01/09 01:40:20;;;;;;;;;;;6.50;99.90;;;;;;5058075;28;19921;-81
2023/01/09 01:42:50;;;;;;;;;;;6.50;99.90;;;;;;5059507;28;19936;-81
2023/01/09 01:45:20;;;;;;;;;;;6.50;99.90;;;;;;5058980;28;19955;-80
2023/01/09 01:47:55;;;;;;;;;;;6.50;99.90;;;;;;5059842;28;19928;-81
2023/01/09 01:50:21;;;;;;;;;;;6.60;99.90;;;;;;5060339;28;19925;-80
2023/01/09 01:52:51;;;;;;;;;;;6.60;99.90;;;;;;5058713;28;19928;-81
2023/01/09 01:55:17;;;;;;;;;;;6.80;99.90;;;;;;5088707;28;19947;-81
2023/01/09 01:57:45;;;;;;;;;;;6.60;99.90;;;;;;5055694;28;19925;-80
2023/01/09 02:00:10;;;;;;;;;;;6.60;99.90;;;;;;5061098;28;19920;-80
2023/01/09 02:02:36;;;;;;;;;;;6.60;99.90;;;;;;5057403;28;19920;-81
2023/01/09 02:05:02;;;;;;;;;;;6.70;99.90;;;;;;5057795;28;19947;-81
2023/01/09 02:07:28;;;;;;;;;;;6.70;99.90;;;;;;5060536;28;20034;-81
2023/01/09 02:09:54;;;;;;;;;;;6.70;99.90;;;;;;5054558;28;19920;-81
2023/01/09 02:12:24;;;;;;;;;;;6.80;99.90;;;;;;5066111;28;19924;-81
2023/01/09 02:14:58;;;;;;;;;;;6.80;99.90;;;;;;5056078;28;19928;-80
2023/01/09 02:17:33;;;;;;;;;;;6.80;99.90;;;;;;5051682;28;19928;-81
2023/01/09 02:20:08;;;;;;;;;;;6.70;99.90;;;;;;5078174;28;19928;-81
2023/01/09 02:22:52;;;;;;;;;;;6.70;99.90;;;;;;5056833;28;19924;-81
2023/01/09 02:25:30;;;;;;;;;;;6.60;99.90;;;;;;5059952;28;19965;-81
2023/01/09 02:27:55;;;;;;;;;;;6.60;99.90;;;;;;5060719;28;19924;-81
2023/01/09 02:30:28;;;;;;;;;;;6.60;99.90;;;;;;5053555;28;19932;-81
2023/01/09 02:33:02;;;;;;;;;;;6.60;99.90;;;;;;5084990;28;19921;-81
2023/01/09 02:35:44;;;;;;;;;;;6.50;99.90;;;;;;5053867;28;19978;-80
2023/01/09 02:38:25;;;;;;;;;;;6.50;99.90;;;;;;5064690;28;19920;-81
2023/01/09 02:40:59;;;;;;;;;;;6.50;99.90;;;;;;5058002;28;19932;-80
2023/01/09 02:43:25;;;;;;;;;;;6.40;99.90;;;;;;5068615;28;19932;-81
2023/01/09 02:45:51;;;;;;;;;;;6.40;99.90;;;;;;5058079;28;19966;-81
2023/01/09 02:48:16;;;;;;;;;;;6.30;99.90;;;;;;5087993;28;20452;-81
2023/01/09 02:50:51;;;;;;;;;;;6.30;99.90;;;;;;5053520;28;19935;-81
2023/01/09 02:53:23;;;;;;;;;;;6.20;99.90;;;;;;5050203;28;19921;-81
2023/01/09 02:55:49;;;;;;;;;;;6.20;99.90;;;;;;5085733;28;20043;-81
2023/01/09 02:58:14;;;;;;;;;;;6.20;99.90;;;;;;5052799;28;20003;-81
2023/01/09 03:00:59;;;;;;;;;;;6.20;99.90;;;;;;5055686;28;19924;-81
2023/01/09 03:03:31;;;;;;;;;;;6.10;99.90;;;;;;5058914;28;19982;-81
2023/01/09 03:06:02;;;;;;;;;;;6.10;99.90;;;;;;5089455;28;19946;-80
2023/01/09 03:08:38;;;;;;;;;;;6.10;99.90;;;;;;5060278;28;19927;-80
2023/01/09 03:11:06;;;;;;;;;;;6.10;99.90;;;;;;5086944;28;19925;-80
2023/01/09 03:13:40;;;;;;;;;;;6.80;99.90;;;;;;5065552;28;19929;-80
2023/01/09 03:16:07;;;;;;;;;;;6.00;99.90;;;;;;5059044;28;20012;-81
2023/01/09 03:18:33;;;;;;;;;;;6.00;99.90;;;;;;5062258;28;19925;-81
2023/01/09 03:20:59;;;;;;;;;;;6.00;99.90;;;;;;5058459;28;20110;-81
2023/01/09 03:23:25;;;;;;;;;;;6.00;99.90;;;;;;5053571;28;20464;-81
2023/01/09 03:25:53;;;;;;;;;;;6.30;99.90;;;;;;5055273;28;19936;-81
2023/01/09 03:28:23;;;;;;;;;;;5.90;99.90;;;;;;5054902;28;19921;-81
2023/01/09 03:30:49;;;;;;;;;;;5.80;99.90;;;;;;5055056;28;20391;-81
2023/01/09 03:33:14;;;;;;;;;;;5.80;99.90;;;;;;5054090;28;19959;-81
2023/01/09 03:35:40;;;;;;;;;;;5.70;99.90;;;;;;5085930;28;20732;-81
2023/01/09 03:38:05;;;;;;;;;;;5.70;99.90;;;;;;5053597;28;20288;-81
2023/01/09 03:40:31;;;;;;;;;;;5.70;99.90;;;;;;5062115;28;20288;-81
2023/01/09 03:42:56;;;;;;;;;;;5.70;99.90;;;;;;5089371;28;19928;-81
2023/01/09 03:45:22;;;;;;;;;;;5.60;99.90;;;;;;5065988;28;19920;-81
2023/01/09 03:47:47;;;;;;;;;;;5.60;99.90;;;;;;5091792;28;19968;-81
2023/01/09 03:50:13;;;;;;;;;;;5.60;99.90;;;;;;5061966;28;19924;-80
2023/01/09 03:52:39;;;;;;;;;;;5.60;99.90;;;;;;5055236;28;19964;-81
2023/01/09 03:55:05;;;;;;;;;;;5.90;99.90;;;;;;5057125;28;19921;-81
2023/01/09 03:57:30;;;;;;;;;;;5.50;99.90;;;;;;5056120;28;19921;-81
2023/01/09 03:59:56;;;;;;;;;;;5.50;99.90;;;;;;5058436;28;19924;-81
2023/01/09 04:02:21;;;;;;;;;;;5.40;99.90;;;;;;5093212;28;19921;-81
2023/01/09 04:04:47;;;;;;;;;;;5.40;99.90;;;;;;5067620;28;19935;-80
2023/01/09 04:07:12;;;;;;;;;;;5.40;99.90;;;;;;5063488;28;20226;-81
2023/01/09 04:09:38;;;;;;;;;;;5.40;99.90;;;;;;5088630;28;19983;-81
2023/01/09 04:12:03;;;;;;;;;;;5.40;99.90;;;;;;5067193;28;20024;-80
2023/01/09 04:14:29;;;;;;;;;;;5.30;99.90;;;;;;5089090;28;19943;-81
2023/01/09 04:16:54;;;;;;;;;;;5.30;99.90;;;;;;5054622;28;19967;-81
2023/01/09 04:19:20;;;;;;;;;;;5.30;99.90;;;;;;5056026;28;20291;-81
2023/01/09 04:21:46;;;;;;;;;;;6.70;99.90;;;;;;5088891;28;19992;-81
2023/01/09 04:24:11;;;;;;;;;;;5.30;99.90;;;;;;5058346;28;20011;-80
2023/01/09 04:26:37;;;;;;;;;;;5.30;99.90;;;;;;5054719;28;19954;-80
2023/01/09 04:29:02;;;;;;;;;;;5.30;99.90;;;;;;5057455;28;20283;-81
2023/01/09 04:31:28;;;;;;;;;;;5.20;99.90;;;;;;5092567;28;19932;-80
2023/01/09 04:33:53;;;;;;;;;;;5.20;99.90;;;;;;5100355;28;19946;-80
2023/01/09 04:36:19;;;;;;;;;;;5.20;99.90;;;;;;5062893;28;20286;-80
2023/01/09 04:38:44;;;;;;;;;;;5.20;99.90;;;;;;5057124;28;19928;-80
2023/01/09 04:41:47;;;;;;;;;;;5.20;99.90;;;;;;5055390;28;20321;-80
2023/01/09 04:43:55;;;;;;;;;;;5.20;99.90;;;;;;5061426;28;20389;-80
2023/01/09 04:46:21;;;;;;;;;;;5.10;99.90;;;;;;5064736;28;19968;-80
2023/01/09 04:48:46;;;;;;;;;;;5.10;99.90;;;;;;5056906;28;19920;-80
2023/01/09 04:51:12;;;;;;;;;;;5.10;99.90;;;;;;5057572;28;20337;-80
2023/01/09 04:53:37;;;;;;;;;;;5.10;99.90;;;;;;5058958;28;19932;-80
2023/01/09 04:56:03;;;;;;;;;;;5.10;99.90;;;;;;5056090;28;19964;-80
2023/01/09 04:58:28;;;;;;;;;;;5.10;99.90;;;;;;5065250;28;19936;-80
2023/01/09 05:00:54;;;;;;;;;;;5.10;99.90;;;;;;5092279;28;19944;-80
2023/01/09 05:03:19;;;;;;;;;;;5.00;99.90;;;;;;5050889;28;20388;-80
2023/01/09 05:05:45;;;;;;;;;;;5.30;99.90;;;;;;5088500;28;20007;-80
2023/01/09 05:08:10;;;;;;;;;;;5.00;99.90;;;;;;5055922;28;19968;-80
2023/01/09 05:10:36;;;;;;;;;;;5.10;99.90;;;;;;5056246;28;20011;-80
2023/01/09 05:13:01;;;;;;;;;;;5.10;99.90;;;;;;5058861;28;19924;-80
2023/01/09 05:15:29;;;;;;;;;;;5.20;99.90;;;;;;5059014;28;20395;-80
2023/01/09 05:17:54;;;;;;;;;;;5.20;99.90;;;;;;5062716;28;20367;-80
2023/01/09 05:20:20;;;;;;;;;;;5.30;99.90;;;;;;5057761;28;19921;-80
2023/01/09 05:22:45;;;;;;;;;;;5.40;99.90;;;;;;5055631;28;19936;-80
2023/01/09 05:25:11;;;;;;;;;;;5.30;99.90;;;;;;5056057;28;20423;-80
2023/01/09 05:27:37;;;;;;;;;;;5.40;99.90;;;;;;5087347;28;19994;-80
2023/01/09 05:30:02;;;;;;;;;;;5.40;99.90;;;;;;5056093;28;19932;-80
2023/01/09 05:32:28;;;;;;;;;;;5.40;99.90;;;;;;5062871;28;19957;-80
2023/01/09 05:34:53;;;;;;;;;;;5.40;99.90;;;;;;5057996;28;20023;-80
2023/01/09 05:37:19;;;;;;;;;;;5.60;99.90;;;;;;5060039;28;20055;-80
2023/01/09 05:39:44;;;;;;;;;;;5.60;99.90;;;;;;5086179;28;19924;-80
2023/01/09 05:42:10;;;;;;;;;;;5.60;99.90;;;;;;5053078;28;20016;-80
2023/01/09 05:44:35;;;;;;;;;;;5.60;99.90;;;;;;5053697;28;19921;-82
2023/01/09 05:47:01;;;;;;;;;;;5.50;99.90;;;;;;5050663;28;19925;-81
2023/01/09 05:49:26;;;;;;;;;;;5.70;99.90;;;;;;5049430;28;19921;-81
2023/01/09 05:51:52;;;;;;;;;;;5.60;99.90;;;;;;5043882;28;20006;-80
2023/01/09 05:54:18;;;;;;;;;;;5.70;99.90;;;;;;5081737;28;19932;-81
2023/01/09 05:56:43;;;;;;;;;;;5.60;99.90;;;;;;5059637;28;19932;-80
2023/01/09 05:59:09;;;;;;;;;;;5.60;99.90;;;;;;5095620;28;19944;-80
2023/01/09 06:01:34;;;;;;;;;;;5.60;99.90;;;;;;5046808;28;19928;-80
2023/01/09 06:04:00;;;;;;;;;;;5.70;99.90;;;;;;5053757;28;19931;-80
2023/01/09 06:06:26;;;;;;;;;;;5.70;99.90;;;;;;5060393;28;19925;-80
2023/01/09 06:08:51;;;;;;;;;;;6.10;99.90;;;;;;5064486;28;19920;-81
2023/01/09 06:11:17;;;;;;;;;;;5.70;99.90;;;;;;5096640;28;20092;-81
2023/01/09 06:13:43;;;;;;;;;;;5.70;99.90;;;;;;5065857;28;19955;-80
2023/01/09 06:16:08;;;;;;;;;;;5.80;99.90;;;;;;5063882;28;19925;-80
2023/01/09 06:18:34;;;;;;;;;;;5.70;99.90;;;;;;5061703;28;19968;-80
2023/01/09 06:20:59;;;;;;;;;;;5.80;99.90;;;;;;5092303;28;20343;-81
2023/01/09 06:23:25;;;;;;;;;;;5.80;99.90;;;;;;5058029;28;19974;-82
2023/01/09 06:25:50;;;;;;;;;;;5.80;99.90;;;;;;5085610;28;20015;-81
2023/01/09 06:28:16;;;;;;;;;;;5.60;99.90;;;;;;5051738;28;20450;-81
2023/01/09 06:30:42;;;;;;;;;;;5.80;99.90;;;;;;5053790;28;19925;-81
2023/01/09 06:33:07;;;;;;;;;;;5.90;99.90;;;;;;5056471;28;19927;-81
2023/01/09 06:35:33;;;;;;;;;;;5.80;99.90;;;;;;5088655;28;20283;-80
2023/01/09 06:38:00;;;;;;;;;;;5.80;99.90;;;;;;5058146;28;20395;-81
2023/01/09 06:40:25;;;;;;;;;;;5.80;99.90;;;;;;5045782;28;19925;-81
2023/01/09 06:42:51;;;;;;;;;;;5.80;99.90;;;;;;5089803;28;19965;-80
2023/01/09 06:45:17;;;;;;;;;;;5.80;99.90;;;;;;5050246;28;20011;-83
2023/01/09 06:47:42;;;;;;;;;;;6.40;99.90;;;;;;5051413;28;19943;-83
2023/01/09 06:50:08;;;;;;;;;;;6.30;99.90;;;;;;5047958;28;20402;-83
2023/01/09 06:52:34;;;;;;;;;;;5.80;99.90;;;;;;5080240;28;20007;-82
2023/01/09 06:55:00;;;;;;;;;;;5.80;99.90;;;;;;5052648;28;19958;-82
2023/01/09 06:57:26;;;;;;;;;;;5.80;99.90;;;;;;5065067;28;20799;-82
2023/01/09 06:59:51;;;;;;;;;;;5.80;99.90;;;;;;5052334;28;19928;-80
2023/01/09 07:02:20;;;;;;;;;;;5.80;99.90;;;;;;5056269;28;19928;-82
2023/01/09 07:04:46;;;;;;;;;;;5.80;99.90;;;;;;5051946;28;19925;-80
2023/01/09 07:07:12;;;;;;;;;;;5.80;99.90;;;;;;5050361;28;19921;-81
2023/01/09 07:09:37;;;;;;;;;;;5.80;99.90;;;;;;5052589;28;19921;-80
2023/01/09 07:12:03;;;;;;;;;;;5.90;99.90;;;;;;5051424;28;19935;-82
2023/01/09 07:14:29;;;;;;;;;;;5.80;99.90;;;;;;5064839;28;19924;-84
2023/01/09 07:16:54;;;;;;;;;;;5.80;99.90;;;;;;5055065;28;19921;-84
2023/01/09 07:19:20;;;;;;;;;;;5.80;99.90;;;;;;5061794;28;19970;-83
2023/01/09 07:21:45;;;;;;;;;;;5.70;99.90;;;;;;5060707;28;19971;-82
2023/01/09 07:24:11;;;;;;;;;;;5.70;99.90;;;;;;5055416;28;20008;-83
2023/01/09 07:26:36;;;;;;;;;;;5.60;99.90;;;;;;5060633;28;19921;-85
2023/01/09 07:29:02;;;;;;;;;;;5.60;99.90;;;;;;5059603;28;19933;-82
2023/01/09 07:31:27;;;;;;;;;;;5.60;99.90;;;;;;5055998;28;19947;-83
2023/01/09 07:33:53;;;;;;;;;;;5.50;99.90;;;;;;5055679;28;19931;-86
2023/01/09 07:36:19;;;;;;;;;;;5.50;99.90;;;;;;5044206;28;19929;-82
2023/01/09 07:38:44;;;;;;;;;;;5.50;99.90;;;;;;5059079;28;20033;-85
2023/01/09 07:41:10;;;;;;;;;;;5.50;99.90;;;;;;5058409;28;19927;-83
2023/01/09 07:43:37;;;;;;;;;;;5.50;99.90;;;;;;5051493;28;19928;-83
2023/01/09 07:46:02;;;;;;;;;;;5.30;99.90;;;;;;5054344;28;19925;-84
2023/01/09 07:48:28;;;;;;;;;;;5.30;99.90;;;;;;5058301;28;19929;-84
2023/01/09 07:50:53;;;;;;;;;;;5.30;99.90;;;;;;5053519;28;20603;-83
2023/01/09 07:53:19;;;;;;;;;;;5.30;99.90;;;;;;5056350;28;19921;-84
2023/01/09 07:55:44;;;;;;;;;;;5.30;99.90;;;;;;5054274;28;20799;-82
2023/01/09 07:58:10;;;;;;;;;;;5.30;99.90;;;;;;5056618;28;19921;-83
2023/01/09 08:00:35;;;;;;;;;;;5.30;99.90;;;;;;5051921;28;20003;-83
2023/01/09 08:03:01;;;;;;;;;;;5.40;99.90;;;;;;5063417;28;20059;-84
2023/01/09 08:05:26;;;;;;;;;;;6.20;99.90;;;;;;5035405;28;19928;-82
2023/01/09 08:07:52;;;;;;;;;;;5.20;99.90;;;;;;5051280;28;19955;-81
2023/01/09 08:10:18;;;;;;;;;;;5.20;99.90;;;;;;5057381;28;20650;-81
2023/01/09 08:12:44;;;;;;;;;;;5.30;99.90;;;;;;5053733;28;19925;-80
2023/01/09 08:15:10;;;;;;;;;;;5.30;99.90;;;;;;5087114;28;20195;-82
2023/01/09 08:17:36;;;;;;;;;;;5.40;99.90;;;;;;5061034;28;19995;-81
2023/01/09 08:20:01;;;;;;;;;;;5.40;99.90;;;;;;5090420;28;20016;-81
2023/01/09 08:22:27;;;;;;;;;;;5.50;99.90;;;;;;5053523;28;19974;-81
2023/01/09 08:24:52;;;;;;;;;;;5.50;99.90;;;;;;5055019;28;20003;-79
2023/01/09 08:27:18;;;;;;;;;;;5.50;99.90;;;;;;5039298;28;20374;-83
2023/01/09 08:29:43;;;;;;;;;;;5.50;99.90;;;;;;5051363;28;19978;-81
2023/01/09 08:32:08;;;;;;;;;;;5.60;99.90;;;;;;5054699;28;19972;-81
2023/01/09 08:34:34;;;;;;;;;;;5.60;99.90;;;;;;5052699;28;19929;-81
2023/01/09 08:37:00;;;;;;;;;;;5.70;99.90;;;;;;5067681;28;19931;-81
2023/01/09 08:39:25;;;;;;;;;;;5.70;99.90;;;;;;5053722;28;19921;-81
2023/01/09 08:47:20;;;;;;;;;;;5.70;99.90;;;;;;5053187;28;19975;-81
2023/01/09 08:49:46;;;;;;;;;;;5.70;99.90;;;;;;5053408;28;19929;-81
2023/01/09 08:52:12;;;;;;;;;;;5.80;99.90;;;;;;5053735;28;19971;-82
2023/01/09 08:54:38;;;;;;;;;;;5.80;99.90;;;;;;5092196;28;19932;-81
2023/01/09 08:57:04;;;;;;;;;;;5.90;99.90;;;;;;5061200;28;20103;-81
2023/01/09 08:59:30;;;;;;;;;;;5.90;99.90;;;;;;5052357;28;19920;-81
2023/01/09 09:01:57;;;;;;;;;;;6.40;99.90;;;;;;5053464;28;19954;-81
2023/01/09 09:04:22;;;;;;;;;;;6.00;99.90;;;;;;5054169;28;19984;-81
2023/01/09 09:06:48;;;;;;;;;;;6.00;99.90;;;;;;5053555;28;19933;-80
2023/01/09 09:09:14;;;;;;;;;;;6.00;99.90;;;;;;5052733;28;19929;-81
2023/01/09 09:11:39;;;;;;;;;;;6.00;99.90;;;;;;5052531;28;19925;-81
2023/01/09 09:16:49;;;;;;;;;;;6.00;99.90;;;;;;5052688;28;19988;-81
2023/01/09 09:19:15;;;;;;;;;;;6.10;99.90;;;;;;5052660;28;19927;-81
2023/01/09 09:21:40;;;;;;;;;;;6.10;99.90;;;;;;5053023;28;19920;-81
2023/01/09 09:24:06;;;;;;;;;;;6.10;99.90;;;;;;5090860;28;20314;-81
2023/01/09 09:26:31;;;;;;;;;;;6.20;99.90;;;;;;5084779;28;20410;-80
2023/01/09 09:28:57;;;;;;;;;;;6.20;99.90;;;;;;5052798;28;20360;-81
2023/01/09 09:31:23;;;;;;;;;;;6.20;99.90;;;;;;5084534;28;19943;-81
2023/01/09 09:33:48;;;;;;;;;;;6.50;99.90;;;;;;5052168;28;19928;-80
2023/01/09 09:36:14;;;;;;;;;;;6.30;99.90;;;;;;5042642;28;19924;-81
2023/01/09 09:38:39;;;;;;;;;;;6.70;99.90;;;;;;5055526;28;19928;-81
2023/01/09 09:44:43;;;;;;;;;;;6.30;99.90;;;;;;5053383;28;20023;-81
2023/01/09 09:47:15;;;;;;;;;;;6.40;99.90;;;;;;5053875;28;19979;-80
2023/01/09 09:49:44;;;;;;;;;;;6.40;99.90;;;;;;5052439;28;19924;-81
2023/01/09 09:52:09;;;;;;;;;;;6.40;99.90;;;;;;5053127;28;19970;-81
2023/01/09 09:54:39;;;;;;;;;;;6.50;99.90;;;;;;5057493;28;19921;-81
2023/01/09 09:57:09;;;;;;;;;;;6.40;99.90;;;;;;5057503;28;19928;-80
2023/01/09 09:59:36;;;;;;;;;;;6.50;99.90;;;;;;5060391;28;19936;-80
2023/01/09 10:02:14;;;;;;;;;;;6.60;99.90;;;;;;5063534;28;19920;-80
2023/01/09 10:04:45;;;;;;;;;;;6.60;99.90;;;;;;5052168;28;20012;-80
2023/01/09 10:07:16;;;;;;;;;;;6.70;99.90;;;;;;5057476;28;19921;-81
2023/01/09 10:09:48;;;;;;;;;;;6.60;99.90;;;;;;5055332;28;19932;-80
2023/01/09 10:12:19;;;;;;;;;;;6.60;99.90;;;;;;5056431;28;19979;-81
2023/01/09 10:14:44;;;;;;;;;;;6.70;99.90;;;;;;5051716;28;20015;-81
2023/01/09 10:17:25;;;;;;;;;;;6.80;99.90;;;;;;5085199;28;20012;-80
2023/01/09 10:19:53;;;;;;;;;;;6.70;99.90;;;;;;5052757;28;19987;-81
2023/01/09 10:22:38;;;;;;;;;;;6.80;99.90;;;;;;5052611;28;19955;-81
2023/01/09 10:25:06;;;;;;;;;;;6.80;99.90;;;;;;5059192;28;20407;-81
2023/01/09 10:27:37;;;;;;;;;;;6.80;99.90;;;;;;5054522;28;20405;-82
2023/01/09 10:30:16;;;;;;;;;;;6.80;99.90;;;;;;5054661;28;20383;-81
2023/01/09 10:32:47;;;;;;;;;;;6.80;99.90;;;;;;5059171;28;19966;-81
2023/01/09 10:35:32;;;;;;;;;;;6.80;99.90;;;;;;5062571;28;19928;-81
2023/01/09 10:37:58;;;;;;;;;;;6.80;99.90;;;;;;5051377;28;20398;-81
2023/01/09 10:40:33;;;;;;;;;;;7.00;99.90;;;;;;5053597;28;19924;-81
2023/01/09 10:43:03;;;;;;;;;;;6.90;99.90;;;;;;5083655;28;19936;-81
2023/01/09 10:45:32;;;;;;;;;;;6.90;99.90;;;;;;5051808;28;19939;-82
2023/01/09 10:48:10;;;;;;;;;;;7.20;99.90;;;;;;5059614;28;19921;-81
2023/01/09 10:50:38;;;;;;;;;;;6.90;99.90;;;;;;5055461;28;19921;-81
2023/01/09 10:53:13;;;;;;;;;;;6.90;99.90;;;;;;5062198;28;20438;-81
2023/01/09 10:55:46;;;;;;;;;;;6.90;99.90;;;;;;5060240;28;20087;-81
2023/01/09 10:58:13;;;;;;;;;;;7.00;99.90;;;;;;5059135;28;19927;-81
2023/01/09 11:00:38;;;;;;;;;;;6.90;99.90;;;;;;5057228;28;19978;-81
2023/01/09 11:03:04;;;;;;;;;;;7.20;99.90;;;;;;5066228;28;20352;-82
2023/01/09 11:05:30;;;;;;;;;;;6.90;99.90;;;;;;5063166;28;19920;-80
2023/01/09 11:07:55;;;;;;;;;;;6.90;99.90;;;;;;5062295;28;19959;-80
2023/01/09 11:10:20;;;;;;;;;;;6.90;99.90;;;;;;5056781;28;19920;-80
2023/01/09 11:12:46;;;;;;;;;;;6.90;99.90;;;;;;5054466;28;19955;-80
2023/01/09 11:15:12;;;;;;;;;;;6.90;99.90;;;;;;5055198;28;19963;-80
2023/01/09 11:17:37;;;;;;;;;;;7.10;99.90;;;;;;5093160;28;19983;-81
2023/01/09 11:20:14;;;;;;;;;;;6.90;99.90;;;;;;5062654;28;19921;-81
2023/01/09 11:22:44;;;;;;;;;;;6.90;99.90;;;;;;5061371;28;19920;-81
2023/01/09 11:25:13;;;;;;;;;;;7.00;99.90;;;;;;5060336;28;19928;-81
2023/01/09 11:27:39;;;;;;;;;;;7.00;99.90;;;;;;5060349;28;20011;-81
2023/01/09 11:30:16;;;;;;;;;;;7.00;99.90;;;;;;5057757;28;20015;-81
2023/01/09 11:32:43;;;;;;;;;;;7.00;99.90;;;;;;5055394;28;19929;-81
2023/01/09 11:35:19;;;;;;;;;;;7.00;99.90;;;;;;5055020;28;20327;-82
2023/01/09 11:37:46;;;;;;;;;;;7.00;99.90;;;;;;5055145;28;20388;-81
2023/01/09 11:40:16;;;;;;;;;;;7.00;99.90;;;;;;5054899;28;20007;-83
2023/01/09 11:42:59;;;;;;;;;;;7.00;99.90;;;;;;5054722;28;19928;-82
2023/01/09 11:45:28;;;;;;;;;;;7.30;99.90;;;;;;5056951;28;19978;-83
2023/01/09 11:47:54;;;;;;;;;;;7.10;99.90;;;;;;5058899;28;19951;-83
2023/01/09 11:50:21;;;;;;;;;;;7.10;99.90;;;;;;5054971;28;20403;-82
2023/01/09 11:53:05;;;;;;;;;;;7.10;99.90;;;;;;5055448;28;20321;-83
2023/01/09 11:55:31;;;;;;;;;;;7.10;99.90;;;;;;5061489;28;19920;-82
2023/01/09 11:57:56;;;;;;;;;;;7.10;99.90;;;;;;5052769;28;19975;-83
2023/01/09 12:00:27;;;;;;;;;;;7.50;99.90;;;;;;5063375;28;19921;-82
2023/01/09 12:03:05;;;;;;;;;;;7.10;99.90;;;;;;5086653;28;20345;-80
2023/01/09 12:06:03;;;;;;;;;;;7.20;99.90;;;;;;5054489;28;19932;-82
2023/01/09 12:08:34;;;;;;;;;;;7.20;99.90;;;;;;5016636;28;20624;-82
2023/01/09 12:11:08;;;;;;;;;;;7.30;99.90;;;;;;5037519;28;20004;-83
2023/01/09 12:13:58;;;;;;;;;;;7.40;99.90;;;;;;5041421;28;19928;-83
2023/01/09 12:16:30;;;;;;;;;;;7.40;99.90;;;;;;5030201;28;19925;-82
2023/01/09 12:19:14;;;;;;;;;;;7.50;99.90;;;;;;5041296;28;19925;-82
2023/01/09 12:21:58;;;;;;;;;;;7.40;99.90;;;;;;5018182;28;20004;-80
2023/01/09 12:24:23;;;;;;;;;;;7.50;99.90;;;;;;5033044;28;20418;-80
2023/01/09 12:27:12;;;;;;;;;;;7.50;99.90;;;;;;5034925;28;20003;-80
2023/01/09 12:29:49;;;;;;;;;;;7.60;99.90;;;;;;5042643;28;20396;-80
2023/01/09 12:32:21;;;;;;;;;;;7.60;99.90;;;;;;5042166;28;19936;-80
2023/01/09 12:35:05;;;;;;;;;;;7.60;99.90;;;;;;5036111;28;19960;-80
2023/01/09 12:37:33;;;;;;;;;;;7.50;99.90;;;;;;5037180;28;20453;-80
2023/01/09 12:40:07;;;;;;;;;;;7.50;99.90;;;;;;5029914;28;19937;-81
2023/01/09 12:42:39;;;;;;;;;;;7.50;99.90;;;;;;5030419;28;20355;-82
2023/01/09 12:45:34;;;;;;;;;;;7.40;99.90;;;;;;5060533;28;19925;-82
2023/01/09 12:48:22;;;;;;;;;;;7.40;99.90;;;;;;5008002;28;20343;-82
2023/01/09 12:50:47;;;;;;;;;;;7.40;99.90;;;;;;5004078;28;19933;-81
2023/01/09 12:53:15;;;;;;;;;;;7.40;99.90;;;;;;4985841;28;19954;-81
2023/01/09 12:55:45;;;;;;;;;;;7.40;99.90;;;;;;5006489;28;19959;-81
2023/01/09 12:58:13;;;;;;;;;;;7.40;99.90;;;;;;5008563;28;19921;-81
2023/01/09 13:00:40;;;;;;;;;;;7.40;99.90;;;;;;5001297;28;19955;-81
2023/01/09 13:03:09;;;;;;;;;;;7.40;99.90;;;;;;5008590;28;19922;-81
2023/01/09 13:05:36;;;;;;;;;;;7.50;99.90;;;;;;5008209;28;19926;-81
2023/01/09 13:08:07;;;;;;;;;;;7.50;99.90;;;;;;5007597;28;19925;-81
2023/01/09 13:10:36;;;;;;;;;;;7.50;99.90;;;;;;5007320;28;20296;-81
2023/01/09 13:13:08;;;;;;;;;;;7.50;99.90;;;;;;5008318;28;20016;-81
2023/01/09 13:15:35;;;;;;;;;;;7.50;99.90;;;;;;5008338;28;19928;-81
2023/01/09 13:18:13;;;;;;;;;;;7.50;99.90;;;;;;5002558;28;20004;-81
2023/01/09 13:20:42;;;;;;;;;;;7.50;99.90;;;;;;5008571;28;19972;-81
2023/01/09 13:23:12;;;;;;;;;;;7.50;99.90;;;;;;5008046;28;19976;-81
2023/01/09 13:25:37;;;;;;;;;;;7.50;99.90;;;;;;5064195;28;19943;-81
2023/01/09 13:28:10;;;;;;;;;;;7.50;99.90;;;;;;5057000;28;20340;-81
2023/01/09 13:30:45;;;;;;;;;;;7.60;99.90;;;;;;5063236;28;19929;-81
2023/01/09 13:33:15;;;;;;;;;;;7.50;99.90;;;;;;5085424;28;20125;-81
2023/01/09 13:35:48;;;;;;;;;;;7.50;99.90;;;;;;5085526;28;19927;-81
2023/01/09 13:38:18;;;;;;;;;;;7.50;99.90;;;;;;5052387;28;19928;-80
2023/01/09 13:40:44;;;;;;;;;;;7.50;99.90;;;;;;5057515;28;19936;-80
2023/01/09 13:43:09;;;;;;;;;;;7.50;99.90;;;;;;5052536;28;19921;-81
2023/01/09 13:45:36;;;;;;;;;;;7.50;99.90;;;;;;5051626;28;20010;-80
2023/01/09 13:48:17;;;;;;;;;;;7.50;99.90;;;;;;5055482;28;19921;-80
2023/01/09 13:50:44;;;;;;;;;;;7.50;99.90;;;;;;5052836;28;19928;-80
2023/01/09 13:53:16;;;;;;;;;;;7.50;99.90;;;;;;5059152;28;19929;-82
2023/01/09 13:56:01;;;;;;;;;;;7.40;99.90;;;;;;5052270;28;20018;-81
2023/01/09 13:58:27;;;;;;;;;;;7.40;99.90;;;;;;5054523;28;20030;-82
2023/01/09 14:01:00;;;;;;;;;;;7.50;99.90;;;;;;5059337;28;20053;-83
2023/01/09 14:03:31;;;;;;;;;;;7.50;99.90;;;;;;5057911;28;19921;-83
2023/01/09 14:05:57;;;;;;;;;;;7.50;99.90;;;;;;5057535;28;19935;-84
2023/01/09 14:08:24;;;;;;;;;;;7.50;99.90;;;;;;5062573;28;19921;-82
2023/01/09 14:11:00;;;;;;;;;;;7.50;99.90;;;;;;5055750;28;20421;-82
2023/01/09 14:13:27;;;;;;;;;;;7.60;99.90;;;;;;5055931;28;19928;-82
2023/01/09 14:16:25;;;;;;;;;;;7.50;99.90;;;;;;5058261;28;20011;-81
2023/01/09 14:19:03;;;;;;;;;;;7.50;99.90;;;;;;5023013;28;19927;-82
2023/01/09 14:21:47;;;;;;;;;;;7.50;99.90;;;;;;5054461;28;19949;-82
2023/01/09 14:24:21;;;;;;;;;;;7.50;99.90;;;;;;5057445;28;19974;-81
2023/01/09 14:26:48;;;;;;;;;;;7.50;99.90;;;;;;5050671;28;20028;-82
2023/01/09 14:29:32;;;;;;;;;;;7.50;99.90;;;;;;5084277;28;19928;-81
2023/01/09 14:32:16;;;;;;;;;;;7.50;99.90;;;;;;5060828;28;19931;-79
2023/01/09 14:34:44;;;;;;;;;;;7.50;99.90;;;;;;5065561;28;20405;-79
2023/01/09 14:37:12;;;;;;;;;;;7.40;99.90;;;;;;5051370;28;19921;-81
2023/01/09 14:39:39;;;;;;;;;;;7.40;99.90;;;;;;5056049;28;19921;-81
2023/01/09 14:42:05;;;;;;;;;;;7.30;99.90;;;;;;5058505;28;19952;-82
2023/01/09 14:44:30;;;;;;;;;;;7.30;99.90;;;;;;5039271;28;20375;-81
2023/01/09 14:47:04;;;;;;;;;;;7.30;99.90;;;;;;5066346;28;19967;-81
2023/01/09 14:49:48;;;;;;;;;;;7.30;99.90;;;;;;5071046;28;19924;-82
2023/01/09 14:52:26;;;;;;;;;;;7.30;99.90;;;;;;5051354;28;20378;-82
2023/01/09 14:54:54;;;;;;;;;;;8.10;99.90;;;;;;5059502;28;19921;-82